Time;durP1;ratioP1;P1;durP2;ratioP2;P2;SDS_P1;SDS_P2;PMS_P1;PMS_P2;Temp;Humidity;BMP_temperature;BMP_pressure;BME280_temperature;BME280_humidity;BME280_pressure;Samples;Min_cycle;Max_cycle;Signal;HPM_P1;HPM_P2
2021/07/15 00:00:25;;;;;;;20.10;19.10;;;18.00;84.30;;;;;;4991854;28;20473;-70
2021/07/15 00:02:52;;;;;;;20.10;18.90;;;18.10;84.10;;;;;;4990185;28;21043;-69
2021/07/15 00:05:19;;;;;;;20.77;19.67;;;18.10;84.00;;;;;;4990921;28;20557;-70
2021/07/15 00:07:47;;;;;;;20.07;19.07;;;18.00;84.10;;;;;;4989677;28;20462;-70
2021/07/15 00:10:19;;;;;;;20.17;18.93;;;18.10;84.20;;;;;;4991073;28;20458;-70
2021/07/15 00:12:47;;;;;;;19.10;18.20;;;18.10;84.40;;;;;;4989533;28;20456;-70
2021/07/15 00:15:16;;;;;;;18.80;17.90;;;18.10;84.90;;;;;;5002973;28;20560;-69
2021/07/15 00:17:43;;;;;;;18.67;17.87;;;18.10;85.70;;;;;;4991173;28;20536;-70
2021/07/15 00:20:13;;;;;;;18.80;17.93;;;18.00;85.80;;;;;;4991411;28;20506;-70
2021/07/15 00:22:40;;;;;;;18.40;17.50;;;17.90;86.60;;;;;;4991257;28;20465;-70
2021/07/15 00:25:11;;;;;;;18.23;17.43;;;18.00;87.10;;;;;;4990962;28;20572;-70
2021/07/15 00:27:38;;;;;;;18.50;17.70;;;17.90;87.20;;;;;;4990928;28;21026;-70
2021/07/15 00:30:06;;;;;;;18.20;17.30;;;17.80;87.30;;;;;;4991045;28;20464;-70
2021/07/15 00:32:34;;;;;;;18.30;17.50;;;17.80;87.20;;;;;;4990257;28;20475;-70
2021/07/15 00:35:01;;;;;;;17.90;17.10;;;17.80;87.30;;;;;;4989333;28;20568;-70
2021/07/15 00:37:29;;;;;;;18.23;17.40;;;17.70;87.90;;;;;;4992907;28;20554;-70
2021/07/15 00:39:56;;;;;;;17.80;17.00;;;17.60;88.20;;;;;;4991294;28;20481;-69
2021/07/15 00:42:24;;;;;;;18.30;17.50;;;17.70;88.00;;;;;;4997253;28;20981;-70
2021/07/15 00:44:51;;;;;;;18.57;17.70;;;17.70;88.00;;;;;;4989897;28;20488;-70
2021/07/15 00:47:18;;;;;;;18.00;17.20;;;17.70;88.00;;;;;;4989860;28;20458;-70
2021/07/15 00:49:45;;;;;;;17.97;17.17;;;17.70;87.80;;;;;;4990753;28;20455;-70
2021/07/15 00:52:12;;;;;;;17.90;17.10;;;17.70;88.20;;;;;;4989802;28;20474;-70
2021/07/15 00:54:41;;;;;;;17.97;17.17;;;17.70;87.60;;;;;;4990415;28;20457;-70
2021/07/15 00:57:08;;;;;;;18.30;17.50;;;17.70;87.50;;;;;;4993914;28;20464;-70
2021/07/15 00:59:38;;;;;;;17.73;16.93;;;17.60;88.10;;;;;;4992376;28;20579;-70
2021/07/15 01:02:05;;;;;;;17.90;17.10;;;17.60;88.20;;;;;;4989461;28;20467;-69
2021/07/15 01:04:32;;;;;;;17.90;17.10;;;17.50;88.40;;;;;;4989714;28;20974;-70
2021/07/15 01:06:59;;;;;;;17.80;17.00;;;17.50;88.40;;;;;;4988725;28;20573;-70
2021/07/15 01:09:26;;;;;;;18.30;17.23;;;17.50;88.50;;;;;;4988910;28;21010;-70
2021/07/15 01:12:04;;;;;;;17.80;17.00;;;17.50;88.40;;;;;;4989454;28;20997;-70
2021/07/15 01:14:38;;;;;;;17.57;16.77;;;17.50;87.90;;;;;;4989498;28;20467;-70
2021/07/15 01:17:12;;;;;;;17.50;16.70;;;17.50;88.00;;;;;;4989438;28;20465;-70
2021/07/15 01:20:08;;;;;;;17.30;16.53;;;17.50;88.10;;;;;;4989015;28;20567;-70
2021/07/15 01:22:38;;;;;;;18.23;17.03;;;17.40;88.70;;;;;;4985400;28;20583;-70
2021/07/15 01:25:40;;;;;;;17.47;16.57;;;17.40;88.90;;;;;;4977231;28;20494;-70
2021/07/15 01:28:11;;;;;;;18.00;16.80;;;17.40;89.20;;;;;;4967508;28;20469;-70
2021/07/15 01:30:43;;;;;;;17.40;16.60;;;17.30;89.30;;;;;;4990011;28;20448;-70
2021/07/15 01:33:16;;;;;;;18.17;17.07;;;17.40;88.70;;;;;;4988954;28;20464;-70
2021/07/15 01:35:49;;;;;;;17.00;16.30;;;17.40;88.90;;;;;;4988443;28;20478;-70
2021/07/15 01:38:19;;;;;;;17.20;16.50;;;17.40;88.70;;;;;;4994222;28;20458;-70
2021/07/15 01:40:49;;;;;;;17.10;16.40;;;17.40;88.70;;;;;;4990284;28;20785;-70
2021/07/15 01:43:21;;;;;;;17.00;16.30;;;17.30;88.80;;;;;;4988277;28;20473;-70
2021/07/15 01:45:50;;;;;;;16.87;15.93;;;17.20;89.10;;;;;;4990032;28;20846;-70
2021/07/15 01:48:17;;;;;;;16.73;16.03;;;17.20;89.20;;;;;;4988534;28;20537;-69
2021/07/15 01:50:44;;;;;;;16.63;15.93;;;17.10;89.40;;;;;;4989822;28;20448;-70
2021/07/15 01:53:12;;;;;;;16.70;16.00;;;17.10;89.30;;;;;;4988761;28;20459;-69
2021/07/15 01:55:40;;;;;;;16.90;16.20;;;17.10;89.70;;;;;;4989273;28;20475;-69
2021/07/15 01:58:09;;;;;;;17.20;16.50;;;17.00;89.70;;;;;;4997715;28;21266;-70
2021/07/15 02:00:38;;;;;;;17.50;16.70;;;17.00;89.80;;;;;;4989875;28;21083;-70
2021/07/15 02:03:09;;;;;;;17.33;16.53;;;17.00;89.90;;;;;;4988418;28;20454;-70
2021/07/15 02:05:37;;;;;;;17.20;16.30;;;16.90;89.90;;;;;;4989498;28;20469;-70
2021/07/15 02:08:05;;;;;;;16.67;15.97;;;17.00;90.00;;;;;;4990089;28;21019;-70
2021/07/15 02:10:33;;;;;;;16.60;15.90;;;17.00;89.90;;;;;;4989143;28;20470;-69
2021/07/15 02:13:01;;;;;;;16.33;15.63;;;17.00;89.70;;;;;;4988295;28;20536;-70
2021/07/15 02:15:29;;;;;;;16.17;15.47;;;17.00;89.70;;;;;;4989276;28;20910;-70
2021/07/15 02:17:58;;;;;;;16.80;16.00;;;16.90;89.70;;;;;;4988029;28;20459;-70
2021/07/15 02:20:27;;;;;;;16.80;15.80;;;16.90;89.80;;;;;;4988482;28;20995;-69
2021/07/15 02:22:55;;;;;;;16.67;15.93;;;16.90;89.40;;;;;;4988644;28;20472;-69
2021/07/15 02:25:23;;;;;;;17.23;16.43;;;16.80;89.50;;;;;;4988845;28;20915;-70
2021/07/15 02:27:52;;;;;;;17.30;16.50;;;16.80;89.90;;;;;;4987767;28;20831;-70
2021/07/15 02:30:21;;;;;;;16.60;15.90;;;16.80;90.00;;;;;;4988830;28;20452;-70
2021/07/15 02:32:52;;;;;;;17.00;16.20;;;16.80;89.80;;;;;;4988116;28;20462;-70
2021/07/15 02:35:21;;;;;;;16.43;15.73;;;16.90;89.60;;;;;;4988181;28;20477;-70
2021/07/15 02:37:52;;;;;;;17.00;16.30;;;16.90;89.60;;;;;;4992884;28;20460;-70
2021/07/15 02:40:19;;;;;;;16.60;15.90;;;17.00;89.40;;;;;;4989248;28;20484;-70
2021/07/15 02:42:47;;;;;;;16.27;15.57;;;17.00;89.10;;;;;;4988812;28;20831;-70
2021/07/15 02:45:16;;;;;;;16.30;15.40;;;16.90;89.30;;;;;;4988883;28;20485;-69
2021/07/15 02:47:44;;;;;;;16.23;15.53;;;16.90;89.60;;;;;;4989834;28;20836;-69
2021/07/15 02:50:14;;;;;;;16.80;16.10;;;16.90;89.40;;;;;;4989567;28;20460;-69
2021/07/15 02:52:42;;;;;;;16.60;15.90;;;16.90;89.50;;;;;;4988586;28;20476;-69
2021/07/15 02:55:13;;;;;;;17.00;16.30;;;16.90;89.60;;;;;;4989491;28;20510;-69
2021/07/15 02:57:49;;;;;;;16.90;16.10;;;16.90;89.60;;;;;;4995202;28;20485;-69
2021/07/15 03:00:18;;;;;;;16.80;15.90;;;16.90;89.40;;;;;;4993607;28;20487;-69
2021/07/15 03:02:57;;;;;;;16.70;16.00;;;16.90;89.60;;;;;;4987032;28;20468;-69
2021/07/15 03:05:27;;;;;;;18.23;17.33;;;16.90;89.50;;;;;;4993391;28;20492;-70
2021/07/15 03:08:01;;;;;;;17.60;16.70;;;17.00;89.50;;;;;;4991336;28;20843;-69
2021/07/15 03:10:30;;;;;;;17.20;16.50;;;17.00;89.00;;;;;;4992847;28;20453;-70
2021/07/15 03:12:57;;;;;;;18.80;17.90;;;17.00;89.00;;;;;;4992156;28;20473;-69
2021/07/15 03:15:25;;;;;;;17.73;16.80;;;17.00;89.10;;;;;;4993080;28;20493;-69
2021/07/15 03:17:53;;;;;;;19.27;18.27;;;17.00;89.00;;;;;;4992003;28;20556;-69
2021/07/15 03:20:24;;;;;;;20.03;19.03;;;17.00;88.90;;;;;;4991932;28;20557;-69
2021/07/15 03:22:56;;;;;;;20.57;19.67;;;17.00;89.10;;;;;;4991840;28;20461;-69
2021/07/15 03:25:25;;;;;;;17.80;17.00;;;17.00;89.10;;;;;;4992821;28;21061;-69
2021/07/15 03:27:56;;;;;;;18.27;17.47;;;17.00;89.10;;;;;;4992306;28;20462;-69
2021/07/15 03:30:26;;;;;;;20.20;19.20;;;17.00;88.70;;;;;;4982831;28;20468;-69
2021/07/15 03:32:55;;;;;;;18.70;17.80;;;17.00;88.90;;;;;;4989953;28;20769;-69
2021/07/15 03:35:23;;;;;;;18.97;17.97;;;17.00;89.00;;;;;;4991086;28;20498;-69
2021/07/15 03:37:51;;;;;;;20.40;19.40;;;17.00;88.90;;;;;;4996441;28;20445;-69
2021/07/15 03:40:20;;;;;;;19.30;18.30;;;17.00;88.90;;;;;;4991516;28;20571;-69
2021/07/15 03:42:48;;;;;;;20.43;19.43;;;17.00;88.50;;;;;;4990549;28;20466;-69
2021/07/15 03:45:19;;;;;;;19.30;18.20;;;17.10;88.40;;;;;;4990333;28;21025;-69
2021/07/15 03:47:49;;;;;;;18.00;17.20;;;17.00;88.70;;;;;;4991932;28;20823;-70
2021/07/15 03:50:19;;;;;;;18.60;17.70;;;17.10;88.40;;;;;;4991157;28;20477;-70
2021/07/15 03:52:48;;;;;;;19.77;18.87;;;17.10;88.30;;;;;;4990486;28;20465;-69
2021/07/15 03:55:17;;;;;;;23.20;22.10;;;17.10;88.10;;;;;;4990871;28;20481;-69
2021/07/15 03:57:46;;;;;;;19.37;18.40;;;17.10;88.40;;;;;;4998384;28;20465;-69
2021/07/15 04:00:14;;;;;;;19.10;18.20;;;17.10;88.50;;;;;;4991046;28;20507;-69
2021/07/15 04:02:43;;;;;;;19.60;18.70;;;17.10;88.20;;;;;;4991124;28;20610;-69
2021/07/15 04:05:13;;;;;;;18.80;17.90;;;17.20;88.00;;;;;;4989251;28;20481;-69
2021/07/15 04:07:41;;;;;;;18.97;18.13;;;17.10;88.20;;;;;;4990489;28;20552;-69
2021/07/15 04:10:12;;;;;;;18.77;17.97;;;17.10;88.30;;;;;;4990603;28;20463;-70
2021/07/15 04:12:42;;;;;;;19.50;18.30;;;17.10;88.40;;;;;;4990577;28;20460;-69
2021/07/15 04:15:11;;;;;;;18.90;18.00;;;17.20;88.20;;;;;;4991293;28;20489;-69
2021/07/15 04:17:43;;;;;;;19.50;18.60;;;17.20;88.20;;;;;;4990685;28;20551;-69
2021/07/15 04:20:13;;;;;;;19.27;18.37;;;17.20;88.00;;;;;;4990982;28;20482;-69
2021/07/15 04:22:44;;;;;;;21.83;20.73;;;17.30;88.00;;;;;;4985307;28;20465;-69
2021/07/15 04:25:14;;;;;;;19.80;18.70;;;17.30;87.60;;;;;;4989639;28;21011;-69
2021/07/15 04:27:43;;;;;;;21.40;20.40;;;17.40;87.40;;;;;;4989746;28;20801;-69
2021/07/15 04:30:11;;;;;;;20.23;19.23;;;17.40;87.50;;;;;;4990829;28;20999;-69
2021/07/15 04:32:42;;;;;;;22.20;21.17;;;17.40;87.60;;;;;;4998882;28;20461;-69
2021/07/15 04:35:11;;;;;;;19.00;18.10;;;17.50;87.40;;;;;;4988438;28;20505;-69
2021/07/15 04:37:41;;;;;;;20.47;19.37;;;17.50;87.20;;;;;;4991685;28;20570;-69
2021/07/15 04:40:11;;;;;;;19.53;18.57;;;17.60;87.00;;;;;;4990466;28;20457;-69
2021/07/15 04:42:39;;;;;;;20.70;19.80;;;17.60;86.90;;;;;;4990636;28;20464;-69
2021/07/15 04:45:09;;;;;;;19.53;18.63;;;17.60;86.80;;;;;;4986880;28;20477;-69
2021/07/15 04:47:39;;;;;;;22.00;21.00;;;17.60;86.60;;;;;;4984504;28;20539;-69
2021/07/15 04:50:09;;;;;;;19.93;19.03;;;17.60;86.60;;;;;;4990252;28;20544;-69
2021/07/15 04:52:38;;;;;;;19.60;18.70;;;17.60;87.00;;;;;;4989780;28;20473;-69
2021/07/15 04:55:08;;;;;;;20.00;19.10;;;17.70;87.00;;;;;;4987417;28;20477;-69
2021/07/15 04:57:36;;;;;;;19.97;19.00;;;17.80;86.70;;;;;;4994809;28;20465;-69
2021/07/15 05:00:07;;;;;;;20.77;19.77;;;17.80;86.30;;;;;;4994882;28;20458;-69
2021/07/15 05:02:34;;;;;;;22.53;21.33;;;18.00;86.10;;;;;;4988717;28;20612;-69
2021/07/15 05:05:02;;;;;;;21.20;20.10;;;18.00;85.80;;;;;;4989575;28;20482;-71
2021/07/15 05:07:29;;;;;;;19.90;18.90;;;18.10;85.50;;;;;;4983312;28;20464;-69
2021/07/15 05:09:56;;;;;;;22.10;21.00;;;18.20;85.40;;;;;;4993384;28;20469;-69
2021/07/15 05:12:24;;;;;;;19.90;18.80;;;18.20;85.50;;;;;;4990047;28;20462;-69
2021/07/15 05:14:52;;;;;;;22.37;21.27;;;18.30;85.80;;;;;;4988777;28;20513;-69
2021/07/15 05:17:19;;;;;;;20.60;19.60;;;18.30;85.00;;;;;;4988806;28;20597;-70
2021/07/15 05:19:46;;;;;;;19.40;18.40;;;18.30;85.90;;;;;;4990346;28;20501;-69
2021/07/15 05:22:13;;;;;;;21.70;20.60;;;18.30;87.00;;;;;;4986650;28;20485;-69
2021/07/15 05:24:40;;;;;;;21.20;20.10;;;18.50;85.50;;;;;;4989669;28;20461;-69
2021/07/15 05:27:07;;;;;;;21.37;20.37;;;18.40;84.40;;;;;;4990290;28;20480;-69
2021/07/15 05:29:36;;;;;;;22.70;21.50;;;18.40;84.60;;;;;;4985620;28;20461;-69
2021/07/15 05:32:04;;;;;;;24.73;23.33;;;18.50;84.50;;;;;;4988796;28;20549;-68
2021/07/15 05:34:31;;;;;;;21.57;20.57;;;18.50;83.90;;;;;;4989598;28;20474;-69
2021/07/15 05:36:58;;;;;;;22.70;21.37;;;18.50;83.80;;;;;;4989234;28;20819;-69
2021/07/15 05:39:25;;;;;;;21.50;20.40;;;18.50;83.50;;;;;;4990166;28;20539;-69
2021/07/15 05:41:52;;;;;;;20.40;19.40;;;18.50;83.40;;;;;;4989191;28;20489;-69
2021/07/15 05:44:19;;;;;;;21.60;20.50;;;18.50;83.40;;;;;;4990627;28;20464;-69
2021/07/15 05:46:47;;;;;;;25.10;24.00;;;18.60;83.50;;;;;;4986390;28;20486;-69
2021/07/15 05:49:14;;;;;;;21.00;20.10;;;18.50;83.60;;;;;;4988857;28;21088;-69
2021/07/15 05:51:46;;;;;;;22.37;21.37;;;18.70;83.00;;;;;;4988670;28;20496;-69
2021/07/15 05:54:13;;;;;;;22.37;21.37;;;18.80;82.90;;;;;;4989368;28;20500;-71
2021/07/15 05:56:40;;;;;;;22.37;21.17;;;18.80;82.60;;;;;;4988663;28;20485;-72
2021/07/15 05:59:07;;;;;;;21.60;20.50;;;18.80;82.60;;;;;;4987134;28;20961;-71
2021/07/15 06:01:34;;;;;;;22.73;21.63;;;18.90;82.30;;;;;;4987596;28;20485;-70
2021/07/15 06:04:02;;;;;;;20.33;19.33;;;19.00;81.90;;;;;;4987097;28;20573;-70
2021/07/15 06:06:29;;;;;;;22.37;21.17;;;19.30;80.90;;;;;;4989686;28;20722;-69
2021/07/15 06:08:56;;;;;;;22.70;21.60;;;19.30;80.50;;;;;;4989572;28;20468;-69
2021/07/15 06:11:23;;;;;;;27.83;26.07;;;19.40;80.50;;;;;;4986740;28;20453;-69
2021/07/15 06:13:50;;;;;;;25.60;24.40;;;19.30;80.30;;;;;;4987769;28;20462;-69
2021/07/15 06:16:17;;;;;;;26.00;24.70;;;19.30;80.80;;;;;;4989222;28;20473;-69
2021/07/15 06:18:44;;;;;;;24.23;22.50;;;19.40;80.70;;;;;;4987304;28;20465;-70
2021/07/15 06:21:12;;;;;;;25.73;24.23;;;19.50;80.80;;;;;;4986396;28;20478;-74
2021/07/15 06:23:39;;;;;;;22.70;21.50;;;19.40;79.90;;;;;;4989145;28;20553;-73
2021/07/15 06:26:06;;;;;;;22.67;21.57;;;19.20;80.30;;;;;;4989774;28;20565;-70
2021/07/15 06:28:33;;;;;;;23.60;22.20;;;19.10;80.00;;;;;;4989399;28;20502;-71
2021/07/15 06:31:00;;;;;;;23.60;22.40;;;19.10;80.60;;;;;;4988912;28;20482;-71
2021/07/15 06:33:27;;;;;;;24.33;23.13;;;19.20;80.70;;;;;;4985336;28;20459;-70
2021/07/15 06:35:54;;;;;;;22.97;21.60;;;19.40;80.50;;;;;;4988321;28;20503;-71
2021/07/15 06:38:29;;;;;;;21.80;20.60;;;19.40;80.40;;;;;;4987619;28;20541;-72
2021/07/15 06:40:58;;;;;;;24.80;23.57;;;19.50;80.20;;;;;;4986434;28;20583;-71
2021/07/15 06:43:25;;;;;;;23.67;22.13;;;19.60;79.90;;;;;;4985816;28;20468;-70
2021/07/15 06:45:52;;;;;;;23.90;22.60;;;19.80;79.70;;;;;;4987028;28;20811;-70
2021/07/15 06:48:20;;;;;;;24.70;23.40;;;20.00;79.10;;;;;;4989924;28;20577;-71
2021/07/15 06:50:47;;;;;;;23.77;22.57;;;19.90;78.40;;;;;;4992011;28;20469;-70
2021/07/15 06:53:14;;;;;;;26.50;24.73;;;19.90;78.20;;;;;;4988226;28;20553;-70
2021/07/15 06:55:43;;;;;;;23.50;22.33;;;19.90;78.20;;;;;;4987550;28;20484;-70
2021/07/15 06:58:10;;;;;;;25.20;23.90;;;20.00;78.00;;;;;;4987453;28;20565;-70
2021/07/15 07:00:38;;;;;;;24.77;23.30;;;20.00;78.00;;;;;;4986819;28;20470;-70
2021/07/15 07:03:05;;;;;;;26.33;24.80;;;20.10;77.40;;;;;;4988107;28;20476;-70
2021/07/15 07:05:32;;;;;;;24.10;22.80;;;20.10;77.70;;;;;;4988004;28;20532;-70
2021/07/15 07:07:59;;;;;;;26.40;25.10;;;20.10;77.80;;;;;;4985071;28;20566;-70
2021/07/15 07:10:26;;;;;;;23.83;22.70;;;20.10;77.40;;;;;;4987842;28;20813;-70
2021/07/15 07:12:54;;;;;;;23.63;22.43;;;20.20;77.60;;;;;;4987926;28;20547;-70
2021/07/15 07:15:21;;;;;;;25.73;24.23;;;20.20;77.80;;;;;;4987826;28;20995;-70
2021/07/15 07:17:49;;;;;;;26.60;25.30;;;20.20;77.50;;;;;;4987222;28;20476;-70
2021/07/15 07:20:16;;;;;;;23.87;22.67;;;20.30;77.50;;;;;;4989516;28;20465;-70
2021/07/15 07:22:43;;;;;;;25.50;24.30;;;20.40;77.60;;;;;;4986625;28;20484;-71
2021/07/15 07:25:13;;;;;;;24.00;22.80;;;20.50;77.30;;;;;;4987858;28;20835;-71
2021/07/15 07:27:40;;;;;;;24.00;22.70;;;20.60;76.70;;;;;;4987252;28;20467;-70
2021/07/15 07:30:11;;;;;;;24.63;23.43;;;20.60;76.40;;;;;;4986292;28;20472;-71
2021/07/15 07:32:38;;;;;;;26.90;25.60;;;20.70;76.50;;;;;;4985643;28;20462;-71
2021/07/15 07:35:06;;;;;;;23.80;22.70;;;20.90;75.80;;;;;;4986284;28;20820;-70
2021/07/15 07:37:33;;;;;;;26.20;24.90;;;20.90;75.30;;;;;;4989557;28;20469;-71
2021/07/15 07:40:01;;;;;;;28.93;26.60;;;21.00;75.10;;;;;;4989232;28;20466;-70
2021/07/15 07:42:28;;;;;;;29.40;27.33;;;21.10;74.60;;;;;;4987234;28;20564;-70
2021/07/15 07:44:54;;;;;;;27.80;26.10;;;21.20;74.90;;;;;;4987674;28;20875;-70
2021/07/15 07:47:23;;;;;;;29.27;27.20;;;21.50;74.30;;;;;;4987673;28;20465;-70
2021/07/15 07:49:50;;;;;;;26.87;24.90;;;21.70;74.30;;;;;;4992962;28;20461;-70
2021/07/15 07:52:17;;;;;;;25.70;24.37;;;21.90;72.90;;;;;;4989643;28;20464;-70
2021/07/15 07:54:44;;;;;;;26.03;24.53;;;22.10;71.80;;;;;;4988860;28;20525;-70
2021/07/15 07:57:10;;;;;;;26.07;24.77;;;21.90;71.00;;;;;;4989012;28;20454;-71
2021/07/15 07:59:38;;;;;;;26.97;25.67;;;21.50;71.10;;;;;;4991022;28;20553;-70
2021/07/15 08:02:05;;;;;;;27.20;25.80;;;21.10;72.30;;;;;;4990832;28;20488;-70
2021/07/15 08:04:33;;;;;;;26.57;25.27;;;21.20;72.40;;;;;;4989386;28;20464;-70
2021/07/15 08:07:02;;;;;;;27.27;25.77;;;21.30;72.30;;;;;;4991899;28;20513;-70
2021/07/15 08:09:31;;;;;;;26.07;24.77;;;21.30;72.10;;;;;;4991065;28;20477;-70
2021/07/15 08:11:58;;;;;;;25.10;23.80;;;21.20;72.70;;;;;;4991371;28;20938;-71
2021/07/15 08:14:25;;;;;;;24.70;23.40;;;21.20;72.80;;;;;;4988645;28;20470;-70
2021/07/15 08:16:52;;;;;;;25.53;24.23;;;21.30;71.80;;;;;;4988333;28;20461;-69
2021/07/15 08:19:20;;;;;;;25.80;24.50;;;20.90;73.40;;;;;;4990688;28;20816;-71
2021/07/15 08:21:48;;;;;;;25.10;23.70;;;20.60;74.40;;;;;;4988996;28;20592;-72
2021/07/15 08:24:15;;;;;;;25.57;24.17;;;20.60;74.90;;;;;;4987190;28;20744;-70
2021/07/15 08:26:42;;;;;;;24.63;23.43;;;20.50;75.20;;;;;;4990175;28;20493;-72
2021/07/15 08:29:09;;;;;;;26.43;24.90;;;20.40;75.10;;;;;;4987200;28;20469;-70
2021/07/15 08:31:36;;;;;;;25.97;24.67;;;20.40;75.20;;;;;;4989048;28;20457;-71
2021/07/15 08:34:03;;;;;;;26.23;24.83;;;20.30;75.30;;;;;;4987666;28;20465;-70
2021/07/15 08:36:31;;;;;;;25.13;23.83;;;20.20;75.50;;;;;;4987103;28;20481;-70
2021/07/15 08:39:00;;;;;;;27.13;25.43;;;20.20;75.60;;;;;;4985709;28;20488;-70
2021/07/15 08:41:27;;;;;;;26.77;25.20;;;20.30;75.30;;;;;;4984892;28;21041;-70
2021/07/15 08:43:54;;;;;;;27.40;26.00;;;20.30;75.30;;;;;;4986620;28;20461;-70
2021/07/15 08:46:22;;;;;;;26.17;24.80;;;20.30;75.70;;;;;;4986232;28;20485;-71
2021/07/15 08:48:49;;;;;;;25.93;24.63;;;20.40;75.40;;;;;;4984355;28;20491;-71
2021/07/15 08:51:17;;;;;;;25.30;24.00;;;20.50;75.30;;;;;;4982768;28;20873;-71
2021/07/15 08:53:45;;;;;;;25.33;23.73;;;20.30;75.90;;;;;;4987044;28;20548;-70
2021/07/15 08:58:59;;;;;;;25.07;23.77;;;20.10;76.20;;;;;;4987423;28;20469;-70
2021/07/15 09:01:27;;;;;;;27.73;25.53;;;19.80;77.10;;;;;;4988072;28;20472;-70
2021/07/15 09:03:55;;;;;;;26.23;24.73;;;19.30;78.00;;;;;;4988784;28;20979;-70
2021/07/15 09:06:22;;;;;;;26.10;24.73;;;19.30;78.60;;;;;;4989202;28;20480;-70
2021/07/15 09:08:51;;;;;;;24.57;23.37;;;19.50;78.60;;;;;;4988147;28;20462;-70
2021/07/15 09:11:19;;;;;;;24.87;23.67;;;19.80;77.40;;;;;;4989064;28;20476;-70
2021/07/15 09:13:47;;;;;;;26.17;24.87;;;19.80;78.80;;;;;;4988676;28;20574;-70
2021/07/15 09:16:15;;;;;;;24.80;23.50;;;19.70;79.50;;;;;;4988469;28;20496;-70
2021/07/15 09:18:55;;;;;;;24.60;23.30;;;19.60;79.90;;;;;;4988294;28;20469;-70
2021/07/15 09:21:23;;;;;;;25.53;24.23;;;19.70;81.20;;;;;;4989340;28;20450;-70
2021/07/15 09:23:50;;;;;;;26.67;24.87;;;20.10;79.90;;;;;;4987432;28;20488;-70
2021/07/15 09:26:21;;;;;;;25.40;24.00;;;20.40;79.70;;;;;;4988867;28;20492;-69
2021/07/15 09:28:51;;;;;;;24.40;23.20;;;20.70;78.40;;;;;;4988166;28;20979;-73
2021/07/15 09:31:20;;;;;;;28.20;26.70;;;20.80;76.50;;;;;;4989836;28;20452;-69
2021/07/15 09:33:48;;;;;;;34.27;32.10;;;20.60;76.70;;;;;;4988645;28;20473;-69
2021/07/15 09:36:17;;;;;;;35.67;33.10;;;20.70;76.50;;;;;;4986790;28;20492;-72
2021/07/15 09:38:46;;;;;;;29.60;27.83;;;20.70;76.20;;;;;;4988349;28;20736;-70
2021/07/15 09:41:18;;;;;;;27.90;26.50;;;20.60;77.00;;;;;;4987296;28;20959;-70
2021/07/15 09:43:47;;;;;;;26.73;25.43;;;20.40;78.10;;;;;;4985211;28;20484;-69
2021/07/15 09:46:25;;;;;;;26.50;24.93;;;20.10;78.70;;;;;;4988904;28;20996;-70
2021/07/15 09:49:04;;;;;;;27.20;25.80;;;20.30;79.10;;;;;;4987456;28;21172;-70
2021/07/15 09:51:42;;;;;;;24.93;23.60;;;20.70;77.90;;;;;;4989031;28;20549;-70
2021/07/15 09:54:10;;;;;;;24.33;23.13;;;21.00;77.10;;;;;;4986797;28;20573;-71
2021/07/15 09:56:45;;;;;;;29.43;27.63;;;21.40;76.20;;;;;;4984490;28;20481;-72
2021/07/15 09:59:20;;;;;;;26.93;25.50;;;21.50;75.70;;;;;;4985446;28;20471;-71
2021/07/15 10:01:48;;;;;;;30.07;28.33;;;21.40;75.00;;;;;;4987173;28;20463;-71
2021/07/15 10:04:22;;;;;;;28.07;26.67;;;21.20;75.20;;;;;;4987675;28;20828;-70
2021/07/15 10:06:51;;;;;;;28.53;26.90;;;21.20;75.80;;;;;;4989288;28;20496;-70
2021/07/15 10:09:23;;;;;;;27.03;25.43;;;20.90;77.90;;;;;;4984686;28;20462;-70
2021/07/15 10:11:54;;;;;;;25.53;24.23;;;20.60;79.80;;;;;;4989094;28;20470;-70
2021/07/15 10:14:32;;;;;;;25.43;24.03;;;20.60;80.40;;;;;;4986321;28;20464;-69
2021/07/15 10:17:00;;;;;;;25.90;24.47;;;20.90;79.50;;;;;;4988195;28;20526;-68
2021/07/15 10:19:27;;;;;;;27.13;25.57;;;21.20;79.00;;;;;;4985885;28;20501;-68
2021/07/15 10:21:58;;;;;;;25.37;23.87;;;21.60;78.50;;;;;;4983818;28;20550;-68
2021/07/15 10:24:26;;;;;;;25.47;24.17;;;21.50;78.40;;;;;;4988512;28;20493;-69
2021/07/15 10:26:55;;;;;;;27.03;25.60;;;21.60;76.00;;;;;;4987288;28;20575;-69
2021/07/15 10:29:25;;;;;;;28.70;27.30;;;21.50;75.80;;;;;;4987565;28;20469;-69
2021/07/15 10:31:54;;;;;;;25.20;23.90;;;21.40;76.10;;;;;;4987868;28;20454;-70
2021/07/15 10:34:21;;;;;;;26.83;25.33;;;21.40;75.50;;;;;;4987868;28;20458;-70
2021/07/15 10:36:53;;;;;;;25.50;23.90;;;21.50;75.70;;;;;;4988897;28;20613;-69
2021/07/15 10:39:23;;;;;;;29.70;28.10;;;21.30;76.40;;;;;;4989498;28;20458;-69
2021/07/15 10:41:54;;;;;;;25.77;24.20;;;21.30;76.70;;;;;;4987146;28;20565;-69
2021/07/15 10:44:22;;;;;;;26.77;25.40;;;21.40;76.00;;;;;;4985974;28;20453;-71
2021/07/15 10:46:51;;;;;;;28.40;26.90;;;21.20;76.10;;;;;;4986484;28;20806;-70
2021/07/15 10:49:19;;;;;;;27.47;25.40;;;20.90;77.40;;;;;;4985336;28;20505;-69
2021/07/15 10:51:47;;;;;;;36.83;24.80;;;21.20;77.90;;;;;;4988086;28;20867;-69
2021/07/15 10:54:15;;;;;;;24.70;23.47;;;21.40;77.50;;;;;;4994074;28;20465;-70
2021/07/15 10:56:44;;;;;;;26.70;25.30;;;21.40;76.00;;;;;;4988926;28;20484;-70
2021/07/15 10:59:23;;;;;;;27.53;26.07;;;21.50;75.90;;;;;;4983984;28;20465;-70
2021/07/15 11:01:51;;;;;;;26.67;25.17;;;21.80;75.50;;;;;;4980216;28;20469;-72
2021/07/15 11:04:22;;;;;;;26.67;25.27;;;21.90;75.20;;;;;;4982183;28;20474;-74
2021/07/15 11:06:51;;;;;;;26.97;25.57;;;22.00;74.70;;;;;;4981305;28;20470;-70
2021/07/15 11:09:30;;;;;;;27.60;26.20;;;22.40;74.00;;;;;;4985613;28;20663;-69
2021/07/15 11:11:58;;;;;;;27.07;25.70;;;22.40;72.60;;;;;;4988717;28;20550;-68
2021/07/15 11:14:36;;;;;;;26.37;25.07;;;22.50;72.90;;;;;;4983580;28;20462;-69
2021/07/15 11:17:26;;;;;;;26.40;25.00;;;22.60;71.80;;;;;;4986785;28;20461;-69
2021/07/15 11:20:15;;;;;;;27.40;25.90;;;22.50;71.90;;;;;;4976610;28;20461;-69
2021/07/15 11:22:52;;;;;;;26.80;25.30;;;22.50;71.90;;;;;;4990019;28;20575;-69
2021/07/15 11:25:38;;;;;;;26.30;25.00;;;22.80;71.40;;;;;;4992278;28;20511;-69
2021/07/15 11:28:18;;;;;;;25.10;23.90;;;22.80;71.60;;;;;;4982836;28;20498;-70
2021/07/15 11:30:48;;;;;;;28.17;26.70;;;22.20;73.60;;;;;;4985072;28;20473;-69
2021/07/15 11:33:41;;;;;;;28.47;27.07;;;22.10;74.70;;;;;;4990194;28;20481;-69
2021/07/15 11:36:11;;;;;;;26.67;25.37;;;22.50;73.80;;;;;;4987014;28;20488;-69
2021/07/15 11:38:41;;;;;;;25.43;24.10;;;22.80;72.10;;;;;;4988560;28;20461;-69
2021/07/15 11:41:10;;;;;;;27.73;26.30;;;23.20;68.80;;;;;;4990023;28;20468;-69
2021/07/15 11:43:51;;;;;;;25.57;24.27;;;23.20;69.20;;;;;;4990198;28;20564;-71
2021/07/15 11:46:22;;;;;;;27.10;25.80;;;23.20;69.90;;;;;;4982585;28;20888;-70
2021/07/15 11:49:00;;;;;;;26.60;25.20;;;22.80;70.90;;;;;;4990296;28;20589;-70
2021/07/15 11:51:31;;;;;;;27.03;25.73;;;22.80;71.50;;;;;;4991113;28;20492;-70
2021/07/15 11:54:32;;;;;;;24.87;23.57;;;22.70;71.40;;;;;;4986971;28;20463;-69
2021/07/15 11:57:01;;;;;;;26.07;24.77;;;22.60;70.90;;;;;;4984361;28;20959;-69
2021/07/15 11:59:39;;;;;;;27.07;25.67;;;22.30;72.40;;;;;;4987378;28;20464;-69
2021/07/15 12:02:17;;;;;;;26.30;24.90;;;21.90;73.40;;;;;;4989632;28;20472;-69
2021/07/15 12:05:17;;;;;;;25.00;23.80;;;21.70;74.00;;;;;;4989978;28;20592;-69
2021/07/15 12:07:45;;;;;;;28.53;27.13;;;21.40;75.80;;;;;;4991595;28;20465;-68
2021/07/15 12:10:18;;;;;;;26.37;25.00;;;21.20;76.80;;;;;;4988852;28;20876;-69
2021/07/15 12:12:45;;;;;;;25.27;24.07;;;21.10;76.70;;;;;;4989776;28;20460;-69
2021/07/15 12:15:20;;;;;;;26.20;24.87;;;20.70;78.20;;;;;;4990619;28;20477;-68
2021/07/15 12:17:49;;;;;;;25.93;24.63;;;20.70;78.00;;;;;;4987092;28;20469;-69
2021/07/15 12:20:18;;;;;;;29.03;27.53;;;20.60;78.00;;;;;;4990025;28;20462;-69
2021/07/15 12:22:51;;;;;;;29.87;28.47;;;20.80;77.90;;;;;;4987749;28;20480;-68
2021/07/15 12:25:20;;;;;;;27.67;26.17;;;21.10;75.90;;;;;;4984740;28;20485;-68
2021/07/15 12:27:50;;;;;;;28.13;26.63;;;21.20;74.60;;;;;;4988265;28;20484;-68
2021/07/15 12:30:18;;;;;;;26.43;25.03;;;21.40;73.70;;;;;;4990852;28;20697;-68
2021/07/15 12:33:00;;;;;;;28.57;27.07;;;21.70;72.70;;;;;;4991359;28;20480;-68
2021/07/15 12:35:29;;;;;;;25.67;24.37;;;21.90;72.90;;;;;;4991786;28;20490;-68
2021/07/15 12:37:58;;;;;;;25.30;24.00;;;22.00;71.60;;;;;;4987913;28;20458;-68
2021/07/15 12:40:31;;;;;;;27.80;26.40;;;22.00;71.80;;;;;;4988076;28;20457;-68
2021/07/15 12:43:12;;;;;;;27.80;26.40;;;21.70;72.50;;;;;;4987571;28;20484;-69